All Spectrum Aviation - Van Nuys Airport - KVNY

HOME

Van Nuys Tower Recordings

Condor Squadron KVNY Webcam

Visit our Electronics Store

Condor Squadron Webcam - Van Nuys Airport - KVNY
Picture taken: Sun, 20 May 2018 03:01:25 -0700
YouTube Channel!    Latest Timelapse Movie    Full Size Image    Regular Size Image    

2018/05/20 09:51 KVNY 200951Z AUTO 00000KT 10SM OVC020 16/12 A2989 RMK AO2 SLP114 T01560117

HOME

Van Nuys Tower Recordings

Condor Squadron KVNY Webcam

Visit our Electronics Store